createdAt,value
2017-08-28T00:00:35.973Z,1007.77
2017-08-28T00:01:50.421Z,1007.81
2017-08-28T00:03:04.829Z,1007.78
2017-08-28T00:04:19.083Z,1007.83
2017-08-28T00:05:32.643Z,1007.81
2017-08-28T00:06:46.542Z,1007.81
2017-08-28T00:08:00.752Z,1007.81
2017-08-28T00:09:14.497Z,1007.73
2017-08-28T00:10:28.077Z,1007.77
2017-08-28T00:11:41.696Z,1007.81
2017-08-28T00:12:56.067Z,1007.74
2017-08-28T00:14:09.935Z,1007.77
2017-08-28T00:15:23.527Z,1007.75
2017-08-28T00:16:37.170Z,1007.73
2017-08-28T00:17:50.764Z,1007.71
2017-08-28T00:19:04.688Z,1007.7
2017-08-28T00:20:18.553Z,1007.7
2017-08-28T00:21:32.199Z,1007.71
2017-08-28T00:22:46.422Z,1007.68
2017-08-28T00:24:00.452Z,1007.64
2017-08-28T00:25:14.022Z,1007.62
2017-08-28T00:26:28.774Z,1007.65
2017-08-28T00:27:42.759Z,1007.6
2017-08-28T00:28:56.478Z,1007.68
2017-08-28T00:30:10.045Z,1007.66
2017-08-28T00:31:24.283Z,1007.64
2017-08-28T00:32:38.862Z,1007.7
2017-08-28T00:33:53.131Z,1007.72
2017-08-28T00:35:06.740Z,1007.74
2017-08-28T00:36:20.294Z,1007.72
2017-08-28T00:37:33.912Z,1007.72
2017-08-28T00:38:48.140Z,1007.71
2017-08-28T00:40:02.031Z,1007.69
2017-08-28T00:41:15.701Z,1007.65
2017-08-28T00:42:29.353Z,1007.64
2017-08-28T00:43:43.499Z,1007.63
2017-08-28T00:44:57.422Z,1007.65
2017-08-28T00:46:17.655Z,1007.63
2017-08-28T00:47:31.940Z,1007.66
2017-08-28T00:48:45.554Z,1007.64
2017-08-28T00:49:59.638Z,1007.63
2017-08-28T00:51:13.853Z,1007.63
2017-08-28T00:52:27.748Z,1007.68
2017-08-28T00:53:41.385Z,1007.62
2017-08-28T00:54:54.958Z,1007.63
2017-08-28T00:56:09.565Z,1007.61
2017-08-28T00:57:23.789Z,1007.62
2017-08-28T00:58:37.623Z,1007.59
2017-08-28T00:59:51.560Z,1007.6
2017-08-28T01:01:05.130Z,1007.58
2017-08-28T01:02:18.699Z,1007.58
2017-08-28T01:03:32.630Z,1007.62
2017-08-28T01:04:46.201Z,1007.61
2017-08-28T01:06:00.382Z,1007.61
2017-08-28T01:07:14.283Z,1007.66
2017-08-28T01:08:28.523Z,1007.62
2017-08-28T01:09:42.388Z,1007.65
2017-08-28T01:10:56.052Z,1007.58
2017-08-28T01:12:09.606Z,1007.6
2017-08-28T01:13:23.606Z,1007.59
2017-08-28T01:14:37.168Z,1007.57
2017-08-28T01:15:51.216Z,1007.59
2017-08-28T01:17:04.795Z,1007.57
2017-08-28T01:18:18.364Z,1007.63
2017-08-28T01:19:31.979Z,1007.66
2017-08-28T01:20:45.560Z,1007.66
2017-08-28T01:21:59.441Z,1007.73
2017-08-28T01:23:13.021Z,1007.61
2017-08-28T01:24:26.591Z,1007.69
2017-08-28T01:25:40.151Z,1007.73
2017-08-28T01:26:53.817Z,1007.72
2017-08-28T01:28:07.700Z,1007.72
2017-08-28T01:29:21.547Z,1007.71
2017-08-28T01:30:35.110Z,1007.65
2017-08-28T01:31:48.813Z,1007.67
2017-08-28T01:33:02.370Z,1007.67
2017-08-28T01:34:16.239Z,1007.68
2017-08-28T01:35:29.834Z,1007.68
2017-08-28T01:36:43.404Z,1007.64
2017-08-28T01:37:56.989Z,1007.59
2017-08-28T01:39:10.635Z,1007.64
2017-08-28T01:40:24.835Z,1007.66
2017-08-28T01:41:38.429Z,1007.67
2017-08-28T01:42:51.970Z,1007.71
2017-08-28T01:44:05.570Z,1007.72
2017-08-28T01:46:48.174Z,1007.62
2017-08-28T01:48:01.723Z,1007.67
2017-08-28T01:49:15.610Z,1007.63
2017-08-28T01:50:29.173Z,1007.62
2017-08-28T01:51:42.739Z,1007.59
2017-08-28T01:52:56.637Z,1007.64
2017-08-28T01:54:10.539Z,1007.62
2017-08-28T01:55:24.591Z,1007.6
2017-08-28T01:56:38.148Z,1007.67
2017-08-28T01:57:51.705Z,1007.61
2017-08-28T01:59:05.609Z,1007.68
2017-08-28T02:00:19.170Z,1007.65
2017-08-28T02:01:32.882Z,1007.69
2017-08-28T02:02:46.809Z,1007.66
2017-08-28T02:04:00.364Z,1007.67
2017-08-28T02:05:14.279Z,1007.67
2017-08-28T02:06:27.844Z,1007.68
2017-08-28T02:07:41.396Z,1007.72
2017-08-28T02:08:54.974Z,1007.74
2017-08-28T02:10:08.569Z,1007.75
2017-08-28T02:11:22.565Z,1007.7
2017-08-28T02:12:36.110Z,1007.73
2017-08-28T02:13:49.687Z,1007.69
2017-08-28T02:15:03.566Z,1007.7
2017-08-28T02:16:17.140Z,1007.7
2017-08-28T02:17:31.014Z,1007.66
2017-08-28T02:18:44.631Z,1007.76
2017-08-28T02:19:58.477Z,1007.74
2017-08-28T02:21:12.092Z,1007.75
2017-08-28T02:22:25.647Z,1007.73
2017-08-28T02:23:39.506Z,1007.75
2017-08-28T02:24:53.065Z,1007.76
2017-08-28T02:26:06.633Z,1007.74
2017-08-28T02:27:20.361Z,1007.75
2017-08-28T02:28:33.919Z,1007.7
2017-08-28T02:29:47.795Z,1007.7
2017-08-28T02:31:01.383Z,1007.66
2017-08-28T02:32:15.000Z,1007.65
2017-08-28T02:33:28.554Z,1007.66
2017-08-28T02:34:42.265Z,1007.74
2017-08-28T02:35:56.149Z,1007.72
2017-08-28T02:37:09.706Z,1007.73
2017-08-28T02:38:23.281Z,1007.71
2017-08-28T02:39:37.278Z,1007.7
2017-08-28T02:40:50.841Z,1007.74
2017-08-28T02:42:04.870Z,1007.82
2017-08-28T02:43:18.463Z,1007.66
2017-08-28T02:44:32.054Z,1007.72
2017-08-28T02:45:45.624Z,1007.75
2017-08-28T02:46:59.208Z,1007.67
2017-08-28T02:48:13.224Z,1007.64
2017-08-28T02:49:26.969Z,1007.67
2017-08-28T02:50:40.535Z,1007.62
2017-08-28T02:51:54.105Z,1007.6
2017-08-28T02:53:07.665Z,1007.62
2017-08-28T02:54:21.664Z,1007.57
2017-08-28T02:55:35.367Z,1007.54
2017-08-28T02:56:49.273Z,1007.61
2017-08-28T02:58:02.899Z,1007.57
2017-08-28T02:59:16.490Z,1007.52
2017-08-28T03:00:30.678Z,1007.56
2017-08-28T03:01:44.242Z,1007.54
2017-08-28T03:02:58.174Z,1007.5
2017-08-28T03:04:11.733Z,1007.56
2017-08-28T03:05:25.453Z,1007.57
2017-08-28T03:06:39.309Z,1007.58
2017-08-28T03:07:52.873Z,1007.54
2017-08-28T03:09:06.683Z,1007.55
2017-08-28T03:10:20.252Z,1007.54
2017-08-28T03:11:33.819Z,1007.56
2017-08-28T03:12:47.669Z,1007.61
2017-08-28T03:14:01.336Z,1007.58
2017-08-28T03:15:14.893Z,1007.55
2017-08-28T03:16:28.457Z,1007.56
2017-08-28T03:17:42.299Z,1007.6
2017-08-28T03:18:56.603Z,1007.58
2017-08-28T03:20:10.168Z,1007.6
2017-08-28T03:21:23.944Z,1007.59
2017-08-28T03:22:37.514Z,1007.56
2017-08-28T03:23:51.128Z,1007.56
2017-08-28T03:25:05.189Z,1007.55
2017-08-28T03:26:19.107Z,1007.54
2017-08-28T03:27:32.678Z,1007.52
2017-08-28T03:28:46.359Z,1007.55
2017-08-28T03:29:59.985Z,1007.47
2017-08-28T03:31:13.874Z,1007.55
2017-08-28T03:32:27.444Z,1007.53
2017-08-28T03:33:41.010Z,1007.51
2017-08-28T03:34:54.891Z,1007.54
2017-08-28T03:36:08.469Z,1007.5
2017-08-28T03:37:22.430Z,1007.51
2017-08-28T03:38:35.992Z,1007.49
2017-08-28T03:39:49.609Z,1007.53
2017-08-28T03:41:03.518Z,1007.51
2017-08-28T03:42:17.096Z,1007.56
2017-08-28T03:43:31.048Z,1007.56
2017-08-28T03:44:44.789Z,1007.58
2017-08-28T03:45:58.356Z,1007.51
2017-08-28T03:47:11.924Z,1007.52
2017-08-28T03:48:25.484Z,1007.55
2017-08-28T03:49:39.343Z,1007.56
2017-08-28T03:50:52.921Z,1007.59
2017-08-28T03:52:06.486Z,1007.59
2017-08-28T03:53:20.051Z,1007.64
2017-08-28T03:54:33.612Z,1007.56
2017-08-28T03:55:47.491Z,1007.53
2017-08-28T03:57:01.063Z,1007.48
2017-08-28T03:58:14.643Z,1007.59
2017-08-28T03:59:28.314Z,1007.62
2017-08-28T04:00:42.204Z,1007.57
2017-08-28T04:01:56.105Z,1007.61
2017-08-28T04:03:09.664Z,1007.59
2017-08-28T04:04:23.237Z,1007.6
2017-08-28T04:05:37.298Z,1007.54
2017-08-28T04:06:51.031Z,1007.56
2017-08-28T04:08:04.914Z,1007.61
2017-08-28T04:09:19.322Z,1007.61
2017-08-28T04:10:32.960Z,1007.67
2017-08-28T04:11:46.521Z,1007.69
2017-08-28T04:13:00.249Z,1007.65
2017-08-28T04:14:14.304Z,1007.62
2017-08-28T04:15:28.214Z,1007.68
2017-08-28T04:16:41.782Z,1007.65
2017-08-28T04:17:55.349Z,1007.73
2017-08-28T04:19:08.929Z,1007.75
2017-08-28T04:20:22.823Z,1007.74
2017-08-28T04:21:36.392Z,1007.72
2017-08-28T04:22:50.002Z,1007.69
2017-08-28T04:24:03.566Z,1007.69
2017-08-28T04:25:17.138Z,1007.68
2017-08-28T04:26:30.984Z,1007.68
2017-08-28T04:27:44.898Z,1007.72
2017-08-28T04:28:58.525Z,1007.72
2017-08-28T04:30:12.101Z,1007.66
2017-08-28T04:31:25.684Z,1007.65
2017-08-28T04:32:39.632Z,1007.67
2017-08-28T04:33:53.668Z,1007.63
2017-08-28T04:35:07.242Z,1007.7
2017-08-28T04:36:21.237Z,1007.71
2017-08-28T04:37:34.801Z,1007.68
2017-08-28T04:38:48.652Z,1007.66
2017-08-28T04:40:02.246Z,1007.66
2017-08-28T04:41:15.830Z,1007.64
2017-08-28T04:42:29.422Z,1007.66
2017-08-28T04:43:42.986Z,1007.66
2017-08-28T04:44:56.853Z,1007.62
2017-08-28T04:46:10.405Z,1007.63
2017-08-28T04:47:24.050Z,1007.64
2017-08-28T04:48:37.642Z,1007.7
2017-08-28T04:49:51.230Z,1007.68
2017-08-28T04:51:05.103Z,1007.71
2017-08-28T04:52:18.687Z,1007.73
2017-08-28T04:53:32.245Z,1007.75
2017-08-28T04:54:46.572Z,1007.78
2017-08-28T04:56:00.152Z,1007.75
2017-08-28T04:57:14.042Z,1007.73
2017-08-28T04:58:27.928Z,1007.8
2017-08-28T04:59:41.483Z,1007.75
2017-08-28T05:00:55.319Z,1007.78
2017-08-28T05:02:08.891Z,1007.8
2017-08-28T05:03:22.766Z,1007.81
2017-08-28T05:04:36.336Z,1007.82
2017-08-28T05:05:49.965Z,1007.82
2017-08-28T05:07:03.635Z,1007.85
2017-08-28T05:08:17.213Z,1007.85
2017-08-28T05:09:31.445Z,1007.87
2017-08-28T05:10:45.001Z,1007.9
2017-08-28T05:11:58.575Z,1007.93
2017-08-28T05:15:17.772Z,1007.9
2017-08-28T05:16:31.446Z,1007.94
2017-08-28T05:17:45.440Z,1007.93
2017-08-28T05:18:59.051Z,1007.89
2017-08-28T05:20:12.984Z,1007.85
2017-08-28T05:21:26.870Z,1007.88
2017-08-28T05:22:40.436Z,1007.9
2017-08-28T05:23:54.205Z,1007.88
2017-08-28T05:25:07.874Z,1007.95
2017-08-28T05:26:21.472Z,1007.94
2017-08-28T05:27:35.684Z,1007.97
2017-08-28T05:28:49.593Z,1007.97
2017-08-28T05:30:03.651Z,1007.96
2017-08-28T05:31:17.260Z,1007.94
2017-08-28T05:32:30.853Z,1007.97
2017-08-28T05:33:44.727Z,1007.9
2017-08-28T05:34:58.293Z,1007.94
2017-08-28T05:36:11.939Z,1008.01
2017-08-28T05:37:25.519Z,1008.02
2017-08-28T05:38:39.107Z,1008.01
2017-08-28T05:39:53.071Z,1008.02
2017-08-28T05:41:07.032Z,1007.93
2017-08-28T05:42:21.128Z,1007.99
2017-08-28T05:43:35.039Z,1008
2017-08-28T05:44:48.625Z,1008
2017-08-28T05:46:02.580Z,1008
2017-08-28T05:47:16.369Z,1008
2017-08-28T05:48:30.268Z,1008.08
2017-08-28T05:49:43.834Z,1008.06
2017-08-28T05:50:57.794Z,1008.05
2017-08-28T05:52:11.698Z,1008.08
2017-08-28T05:53:25.267Z,1008.13
2017-08-28T05:54:38.854Z,1008.15
2017-08-28T05:55:52.477Z,1008.11
2017-08-28T05:57:06.198Z,1008.15
2017-08-28T05:58:20.447Z,1008.27
2017-08-28T05:59:34.014Z,1008.21
2017-08-28T06:00:47.632Z,1008.21
2017-08-28T06:02:01.423Z,1008.27
2017-08-28T06:03:15.257Z,1008.26
2017-08-28T06:04:29.139Z,1008.26
2017-08-28T06:05:42.723Z,1008.23
2017-08-28T06:06:56.377Z,1008.28
2017-08-28T06:08:10.265Z,1008.22
2017-08-28T06:09:23.855Z,1008.25
2017-08-28T06:10:37.839Z,1008.23
2017-08-28T06:11:51.429Z,1008.24
2017-08-28T06:13:05.031Z,1008.24
2017-08-28T06:14:18.588Z,1008.28
2017-08-28T06:15:32.167Z,1008.26
2017-08-28T06:16:46.047Z,1008.27
2017-08-28T06:17:59.831Z,1008.27
2017-08-28T06:19:15.204Z,1008.29
2017-08-28T06:20:28.767Z,1008.31
2017-08-28T06:21:42.379Z,1008.34
2017-08-28T06:22:56.291Z,1008.23
2017-08-28T06:24:10.332Z,1008.24
2017-08-28T06:25:23.905Z,1008.24
2017-08-28T06:26:37.473Z,1008.22
2017-08-28T06:27:51.063Z,1008.2
2017-08-28T06:29:04.633Z,1008.22
2017-08-28T06:30:18.212Z,1008.18
2017-08-28T06:31:31.814Z,1008.22
2017-08-28T06:32:45.500Z,1008.23
2017-08-28T06:33:59.130Z,1008.23
2017-08-28T06:35:12.729Z,1008.26
2017-08-28T06:36:26.296Z,1008.26
2017-08-28T06:37:39.854Z,1008.27
2017-08-28T06:38:53.474Z,1008.3
2017-08-28T06:40:07.383Z,1008.32
2017-08-28T06:41:21.199Z,1008.26
2017-08-28T06:42:35.142Z,1008.32
2017-08-28T06:43:48.729Z,1008.23
2017-08-28T06:45:02.439Z,1008.25
2017-08-28T06:46:16.050Z,1008.23
2017-08-28T06:47:29.635Z,1008.21
2017-08-28T06:48:43.252Z,1008.24
2017-08-28T06:49:56.845Z,1008.22
2017-08-28T06:51:10.426Z,1008.21
2017-08-28T06:52:24.069Z,1008.2
2017-08-28T06:53:38.433Z,1008.17
2017-08-28T06:54:52.019Z,1008.27
2017-08-28T06:56:06.098Z,1008.21
2017-08-28T06:57:19.691Z,1008.25
2017-08-28T06:58:33.320Z,1008.26
2017-08-28T06:59:47.243Z,1008.26
2017-08-28T07:01:01.025Z,1008.21
2017-08-28T07:02:14.603Z,1008.19
2017-08-28T07:03:28.202Z,1008.18
2017-08-28T07:04:41.771Z,1008.19
2017-08-28T07:05:55.687Z,1008.24
2017-08-28T07:07:09.671Z,1008.24
2017-08-28T07:08:23.279Z,1008.21
2017-08-28T07:09:36.850Z,1008.24
2017-08-28T07:10:50.812Z,1008.24
2017-08-28T07:12:05.052Z,1008.33
2017-08-28T07:13:19.158Z,1008.27
2017-08-28T07:14:32.752Z,1008.3
2017-08-28T07:15:46.396Z,1008.32
2017-08-28T07:17:00.557Z,1008.32
2017-08-28T07:18:14.445Z,1008.28
2017-08-28T07:22:25.432Z,1008.33
2017-08-28T07:23:39.303Z,1008.26
2017-08-28T07:24:52.887Z,1008.34
2017-08-28T07:26:06.473Z,1008.33
2017-08-28T07:27:20.099Z,1008.37
2017-08-28T07:28:33.684Z,1008.33
2017-08-28T07:29:47.244Z,1008.32
2017-08-28T07:31:00.832Z,1008.38
2017-08-28T07:32:14.400Z,1008.36
2017-08-28T07:33:28.078Z,1008.42
2017-08-28T07:34:42.054Z,1008.38
2017-08-28T07:35:55.964Z,1008.35
2017-08-28T07:37:09.962Z,1008.38
2017-08-28T07:38:23.926Z,1008.43
2017-08-28T07:39:37.503Z,1008.44
2017-08-28T07:40:51.152Z,1008.41
2017-08-28T07:42:05.095Z,1008.38
2017-08-28T07:43:18.733Z,1008.38
2017-08-28T07:44:32.317Z,1008.4
2017-08-28T07:45:45.919Z,1008.4
2017-08-28T07:46:59.678Z,1008.35
2017-08-28T07:48:13.668Z,1008.3
2017-08-28T07:49:27.334Z,1008.3
2017-08-28T07:50:40.932Z,1008.3
2017-08-28T07:51:54.503Z,1008.34
2017-08-28T07:53:08.121Z,1008.32
2017-08-28T07:54:21.857Z,1008.38
2017-08-28T07:55:35.556Z,1008.39
2017-08-28T07:56:49.453Z,1008.37
2017-08-28T07:58:03.025Z,1008.38
2017-08-28T07:59:16.738Z,1008.39
2017-08-28T08:00:31.575Z,1008.43
2017-08-28T08:01:45.502Z,1008.38
2017-08-28T08:02:59.142Z,1008.42
2017-08-28T08:04:12.726Z,1008.41
2017-08-28T08:05:26.381Z,1008.44
2017-08-28T08:06:40.927Z,1008.46
2017-08-28T08:07:54.520Z,1008.41
2017-08-28T08:09:08.137Z,1008.47
2017-08-28T08:10:22.593Z,1008.45
2017-08-28T08:11:36.675Z,1008.39
2017-08-28T08:12:50.596Z,1008.42
2017-08-28T08:14:04.185Z,1008.45
2017-08-28T08:15:17.860Z,1008.42
2017-08-28T08:16:31.455Z,1008.34
2017-08-28T08:17:45.030Z,1008.34
2017-08-28T08:18:58.939Z,1008.42
2017-08-28T08:20:12.584Z,1008.37
2017-08-28T08:21:26.155Z,1008.34
2017-08-28T08:22:39.756Z,1008.34
2017-08-28T08:23:53.334Z,1008.37
2017-08-28T08:25:07.205Z,1008.36
2017-08-28T08:26:20.956Z,1008.31
2017-08-28T08:27:34.540Z,1008.36
2017-08-28T08:28:48.451Z,1008.35
2017-08-28T08:30:02.351Z,1008.3
2017-08-28T08:31:16.290Z,1008.33
2017-08-28T08:32:29.959Z,1008.39
2017-08-28T08:33:43.563Z,1008.37
2017-08-28T08:34:57.148Z,1008.37
2017-08-28T08:36:10.730Z,1008.41
2017-08-28T08:37:24.648Z,1008.46
2017-08-28T08:38:38.746Z,1008.48
2017-08-28T08:39:52.326Z,1008.47
2017-08-28T08:41:05.962Z,1008.48
2017-08-28T08:42:20.202Z,1008.51
2017-08-28T08:43:34.146Z,1008.52
2017-08-28T08:44:47.718Z,1008.56
2017-08-28T08:46:01.648Z,1008.51
2017-08-28T08:47:16.502Z,1008.53
2017-08-28T08:48:30.105Z,1008.48
2017-08-28T08:49:44.018Z,1008.52
2017-08-28T08:50:57.949Z,1008.51
2017-08-28T08:52:12.091Z,1008.47
2017-08-28T08:53:25.683Z,1008.45
2017-08-28T08:54:39.671Z,1008.43
2017-08-28T08:55:54.620Z,1008.43
2017-08-28T08:57:08.538Z,1008.46
2017-08-28T08:58:22.102Z,1008.45
2017-08-28T08:59:35.686Z,1008.47
2017-08-28T09:00:49.283Z,1008.45
2017-08-28T09:02:03.347Z,1008.45
2017-08-28T09:03:16.995Z,1008.47
2017-08-28T09:04:31.093Z,1008.49
2017-08-28T09:05:44.738Z,1008.5
2017-08-28T09:06:58.321Z,1008.51
2017-08-28T09:08:11.973Z,1008.48
2017-08-28T09:09:25.606Z,1008.44
2017-08-28T09:10:39.224Z,1008.42
2017-08-28T09:11:52.994Z,1008.46
2017-08-28T09:13:06.593Z,1008.47
2017-08-28T09:14:20.502Z,1008.41
2017-08-28T09:15:34.096Z,1008.42
2017-08-28T09:16:48.814Z,1008.42
2017-08-28T09:18:02.473Z,1008.36
2017-08-28T09:19:16.052Z,1008.37
2017-08-28T09:20:30.193Z,1008.35
2017-08-28T09:21:43.786Z,1008.33
2017-08-28T09:22:57.533Z,1008.33
2017-08-28T09:24:11.216Z,1008.36
2017-08-28T09:25:24.822Z,1008.32
2017-08-28T09:26:38.751Z,1008.33
2017-08-28T09:27:52.393Z,1008.35
2017-08-28T09:29:06.050Z,1008.37
2017-08-28T09:30:19.756Z,1008.32
2017-08-28T09:31:33.953Z,1008.36
2017-08-28T09:32:48.403Z,1008.35
2017-08-28T09:34:02.037Z,1008.37
2017-08-28T09:35:15.760Z,1008.34
2017-08-28T09:36:29.682Z,1008.35
2017-08-28T09:37:43.283Z,1008.34
2017-08-28T09:38:57.232Z,1008.34
2017-08-28T09:40:10.846Z,1008.37
2017-08-28T09:41:24.454Z,1008.35
2017-08-28T09:42:38.128Z,1008.32
2017-08-28T09:43:51.769Z,1008.33
2017-08-28T09:45:05.693Z,1008.32
2017-08-28T09:46:19.569Z,1008.34
2017-08-28T09:47:33.689Z,1008.31
2017-08-28T09:48:47.297Z,1008.33
2017-08-28T09:50:01.089Z,1008.32
2017-08-28T09:51:15.306Z,1008.3
2017-08-28T09:52:29.214Z,1008.28
2017-08-28T09:53:42.802Z,1008.31
2017-08-28T09:54:56.397Z,1008.28
2017-08-28T09:56:10.226Z,1008.27
2017-08-28T09:57:24.118Z,1008.26
2017-08-28T09:58:37.761Z,1008.26
2017-08-28T09:59:51.580Z,1008.27
2017-08-28T10:01:05.169Z,1008.25
2017-08-28T10:02:18.884Z,1008.26
2017-08-28T10:03:32.775Z,1008.31
2017-08-28T10:04:46.392Z,1008.28
2017-08-28T10:05:59.987Z,1008.29
2017-08-28T10:07:13.578Z,1008.3
2017-08-28T10:08:27.183Z,1008.28
2017-08-28T10:09:41.271Z,1008.23
2017-08-28T10:10:54.886Z,1008.26
2017-08-28T10:12:08.485Z,1008.25
2017-08-28T10:13:22.127Z,1008.23
2017-08-28T10:14:35.764Z,1008.25
2017-08-28T10:15:50.267Z,1008.31
2017-08-28T10:17:03.847Z,1008.23
2017-08-28T10:18:17.443Z,1008.22
2017-08-28T10:19:31.034Z,1008.18
2017-08-28T10:20:44.669Z,1008.18
2017-08-28T10:21:58.549Z,1008.17
2017-08-28T10:23:12.508Z,1008.14
2017-08-28T10:24:26.112Z,1008.12
2017-08-28T10:25:39.694Z,1008.11
2017-08-28T10:26:53.483Z,1008.11
2017-08-28T10:28:07.432Z,1008.11
2017-08-28T10:29:21.059Z,1008.1
2017-08-28T10:30:35.239Z,1008.1
2017-08-28T10:31:48.828Z,1008.13
2017-08-28T10:33:02.447Z,1008.13
2017-08-28T10:34:16.354Z,1008.12
2017-08-28T10:35:30.005Z,1008.12
2017-08-28T10:36:43.609Z,1008.12
2017-08-28T10:37:57.324Z,1008.11
2017-08-28T10:39:11.268Z,1008.06
2017-08-28T10:40:25.141Z,1008.09
2017-08-28T10:41:39.001Z,1008.08
2017-08-28T10:42:52.580Z,1008.05
2017-08-28T10:44:06.721Z,1008.06
2017-08-28T10:45:20.708Z,1008.05
2017-08-28T10:46:34.650Z,1007.93
2017-08-28T10:47:48.261Z,1007.95
2017-08-28T10:49:02.240Z,1007.96
2017-08-28T10:50:15.929Z,1007.98
2017-08-28T10:51:29.593Z,1007.98
2017-08-28T10:52:43.511Z,1007.95
2017-08-28T10:53:57.092Z,1007.96
2017-08-28T10:55:10.683Z,1007.94
2017-08-28T10:56:24.552Z,1007.9
2017-08-28T10:57:38.137Z,1007.96
2017-08-28T10:58:52.523Z,1007.93
2017-08-28T11:00:06.119Z,1007.95
2017-08-28T11:01:19.737Z,1007.93
2017-08-28T11:02:33.792Z,1007.89
2017-08-28T11:03:47.372Z,1007.91
2017-08-28T11:05:01.459Z,1007.86
2017-08-28T11:06:15.030Z,1007.86
2017-08-28T11:07:28.830Z,1007.9
2017-08-28T11:08:42.830Z,1007.91
2017-08-28T11:09:56.775Z,1007.89
2017-08-28T11:11:11.038Z,1007.83
2017-08-28T11:12:43.883Z,1007.85
2017-08-28T11:13:57.492Z,1007.84
2017-08-28T11:15:11.067Z,1007.8
2017-08-28T11:16:24.993Z,1007.78
2017-08-28T11:17:38.992Z,1007.77
2017-08-28T11:18:52.602Z,1007.77
2017-08-28T11:20:06.302Z,1007.84
2017-08-28T11:21:20.237Z,1007.82
2017-08-28T11:22:34.505Z,1007.85
2017-08-28T11:23:48.403Z,1007.86
2017-08-28T11:25:02.318Z,1007.85
2017-08-28T11:26:15.918Z,1007.82
2017-08-28T11:27:29.619Z,1007.84
2017-08-28T11:28:43.499Z,1007.83
2017-08-28T11:29:57.860Z,1007.83
2017-08-28T11:31:11.515Z,1007.86
2017-08-28T11:32:26.113Z,1007.84
2017-08-28T11:33:39.728Z,1007.83
2017-08-28T11:34:53.618Z,1007.77
2017-08-28T11:36:07.199Z,1007.77
2017-08-28T11:37:21.835Z,1007.75
2017-08-28T11:38:35.533Z,1007.73
2017-08-28T11:39:49.148Z,1007.72
2017-08-28T11:41:03.079Z,1007.72
2017-08-28T11:42:17.136Z,1007.69
2017-08-28T11:43:31.208Z,1007.73
2017-08-28T11:44:45.126Z,1007.73
2017-08-28T11:45:58.724Z,1007.74
2017-08-28T11:47:12.617Z,1007.79
2017-08-28T11:48:26.851Z,1007.71
2017-08-28T11:49:40.424Z,1007.72
2017-08-28T11:50:54.089Z,1007.67
2017-08-28T11:52:07.714Z,1007.67
2017-08-28T11:53:22.057Z,1007.69
2017-08-28T11:54:36.066Z,1007.69
2017-08-28T11:55:49.724Z,1007.73
2017-08-28T11:57:03.520Z,1007.7
2017-08-28T11:58:17.542Z,1007.65
2017-08-28T11:59:31.849Z,1007.66
2017-08-28T12:00:45.827Z,1007.68
2017-08-28T12:01:59.538Z,1007.66
2017-08-28T12:03:14.069Z,1007.67
2017-08-28T12:04:27.712Z,1007.67
2017-08-28T12:05:41.679Z,1007.66
2017-08-28T12:06:55.287Z,1007.66
2017-08-28T12:08:09.277Z,1007.65
2017-08-28T12:09:37.806Z,1007.63
2017-08-28T12:10:51.870Z,1007.61
2017-08-28T12:12:05.813Z,1007.62
2017-08-28T12:13:19.653Z,1007.54
2017-08-28T12:14:34.016Z,1007.56
2017-08-28T12:15:47.969Z,1007.55
2017-08-28T12:17:01.630Z,1007.48
2017-08-28T12:18:16.833Z,1007.48
2017-08-28T12:19:30.470Z,1007.46
2017-08-28T12:20:44.086Z,1007.44
2017-08-28T12:21:58.043Z,1007.46
2017-08-28T12:23:11.989Z,1007.48
2017-08-28T12:24:26.225Z,1007.44
2017-08-28T12:25:39.827Z,1007.4
2017-08-28T12:26:53.888Z,1007.44
2017-08-28T12:28:07.601Z,1007.44
2017-08-28T12:29:21.242Z,1007.41
2017-08-28T12:30:35.213Z,1007.39
2017-08-28T12:31:49.265Z,1007.47
2017-08-28T12:33:02.915Z,1007.4
2017-08-28T12:34:16.674Z,1007.43
2017-08-28T12:35:30.860Z,1007.4
2017-08-28T12:36:44.749Z,1007.4
2017-08-28T12:37:58.341Z,1007.37
2017-08-28T12:39:11.929Z,1007.38
2017-08-28T12:40:25.609Z,1007.32
2017-08-28T12:41:39.542Z,1007.37
2017-08-28T12:42:53.428Z,1007.34
2017-08-28T12:44:07.077Z,1007.37
2017-08-28T12:45:21.161Z,1007.32
2017-08-28T12:46:34.947Z,1007.29
2017-08-28T12:47:48.946Z,1007.33
2017-08-28T12:49:02.833Z,1007.27
2017-08-28T12:50:16.479Z,1007.27
2017-08-28T12:51:30.131Z,1007.31
2017-08-28T12:52:43.762Z,1007.31
2017-08-28T12:53:57.776Z,1007.3
2017-08-28T12:55:11.928Z,1007.33
2017-08-28T12:56:25.548Z,1007.37
2017-08-28T13:01:11.530Z,1007.22
2017-08-28T13:02:25.691Z,1007.22
2017-08-28T13:03:39.683Z,1007.24
2017-08-28T13:04:53.318Z,1007.23
2017-08-28T13:06:07.212Z,1007.27
2017-08-28T13:07:21.114Z,1007.26
2017-08-28T13:08:34.991Z,1007.23
2017-08-28T13:09:48.606Z,1007.19
2017-08-28T13:11:02.842Z,1007.16
2017-08-28T13:12:16.513Z,1007.19
2017-08-28T13:13:31.494Z,1007.2
2017-08-28T13:14:45.487Z,1007.23
2017-08-28T13:15:59.143Z,1007.09
2017-08-28T13:17:13.182Z,1007.14
2017-08-28T13:18:28.159Z,1007.14
2017-08-28T13:19:42.763Z,1007.13
2017-08-28T13:20:56.872Z,1007.12
2017-08-28T13:22:10.503Z,1007.12
2017-08-28T13:23:24.185Z,1007.12
2017-08-28T13:24:37.864Z,1007.12
2017-08-28T13:25:51.843Z,1007.14
2017-08-28T13:27:05.867Z,1007.06
2017-08-28T13:28:19.586Z,1007.02
2017-08-28T13:29:33.249Z,1007.05
2017-08-28T13:30:47.373Z,1007.06
2017-08-28T13:32:01.296Z,1007.01
2017-08-28T13:33:14.983Z,1006.99
2017-08-28T13:34:28.906Z,1006.95
2017-08-28T13:35:42.950Z,1006.95
2017-08-28T13:36:57.172Z,1006.94
2017-08-28T13:38:12.052Z,1006.94
2017-08-28T13:39:25.663Z,1006.94
2017-08-28T13:40:39.554Z,1006.95
2017-08-28T13:41:53.230Z,1006.96
2017-08-28T13:43:06.871Z,1006.93
2017-08-28T13:44:20.760Z,1006.91
2017-08-28T13:45:34.691Z,1006.88
2017-08-28T13:46:48.461Z,1006.88
2017-08-28T13:48:02.108Z,1006.93
2017-08-28T13:49:15.742Z,1006.9
2017-08-28T13:50:30.173Z,1006.89
2017-08-28T13:51:43.820Z,1006.88
2017-08-28T13:52:57.627Z,1006.84
2017-08-28T13:54:11.279Z,1006.8
2017-08-28T13:55:24.877Z,1006.8
2017-08-28T13:56:38.757Z,1006.81
2017-08-28T13:57:52.343Z,1006.81
2017-08-28T13:59:05.918Z,1006.83
2017-08-28T14:00:19.527Z,1006.79
2017-08-28T14:01:33.345Z,1006.76
2017-08-28T14:02:47.658Z,1006.74
2017-08-28T14:04:01.346Z,1006.74
2017-08-28T14:05:14.937Z,1006.73
2017-08-28T14:06:28.811Z,1006.75
2017-08-28T14:07:42.426Z,1006.74
2017-08-28T14:08:56.401Z,1006.71
2017-08-28T14:10:10.698Z,1006.7
2017-08-28T14:11:24.329Z,1006.73
2017-08-28T14:12:37.937Z,1006.74
2017-08-28T14:13:51.967Z,1006.64
2017-08-28T14:15:06.324Z,1006.65
2017-08-28T14:16:20.350Z,1006.66
2017-08-28T14:17:33.966Z,1006.67
2017-08-28T14:18:47.567Z,1006.7
2017-08-28T14:20:01.209Z,1006.67
2017-08-28T14:21:15.376Z,1006.66
2017-08-28T14:22:29.349Z,1006.68
2017-08-28T14:23:42.940Z,1006.66
2017-08-28T14:24:56.584Z,1006.61
2017-08-28T14:26:11.020Z,1006.58
2017-08-28T14:27:25.655Z,1006.58
2017-08-28T14:28:39.279Z,1006.58
2017-08-28T14:29:52.993Z,1006.53
2017-08-28T14:31:06.831Z,1006.54
2017-08-28T14:32:20.609Z,1006.51
2017-08-28T14:33:34.598Z,1006.51
2017-08-28T14:34:48.223Z,1006.51
2017-08-28T14:36:02.060Z,1006.49
2017-08-28T14:37:15.948Z,1006.52
2017-08-28T14:38:29.671Z,1006.48
2017-08-28T14:39:44.084Z,1006.48
2017-08-28T14:40:57.724Z,1006.53
2017-08-28T14:42:11.448Z,1006.52
2017-08-28T14:43:25.537Z,1006.52
2017-08-28T14:44:39.675Z,1006.54
2017-08-28T14:45:53.632Z,1006.51
2017-08-28T14:47:07.623Z,1006.5
2017-08-28T14:48:22.052Z,1006.5
2017-08-28T14:49:55.507Z,1006.48
2017-08-28T14:55:12.821Z,1006.51
2017-08-28T14:56:26.933Z,1006.49
2017-08-28T14:57:40.561Z,1006.46
2017-08-28T14:58:54.159Z,1006.44
2017-08-28T15:00:08.314Z,1006.5
2017-08-28T15:01:22.925Z,1006.48
2017-08-28T15:02:37.016Z,1006.5
2017-08-28T15:03:50.698Z,1006.45
2017-08-28T15:05:04.419Z,1006.5
2017-08-28T15:06:18.190Z,1006.47
2017-08-28T15:07:31.825Z,1006.39
2017-08-28T15:08:45.791Z,1006.43
2017-08-28T15:09:59.803Z,1006.43
2017-08-28T15:11:13.441Z,1006.42